Time;durP1;ratioP1;P1;durP2;ratioP2;P2;SDS_P1;SDS_P2;PMS_P1;PMS_P2;Temp;Humidity;BMP_temperature;BMP_pressure;BME280_temperature;BME280_humidity;BME280_pressure;Samples;Min_cycle;Max_cycle;Signal;HPM_P1;HPM_P2
2022/08/23 00:00:19;;;;;;;8.13;4.50;;;17.20;92.70;;;;;;5070787;28;20214;-65
2022/08/23 00:02:48;;;;;;;5.90;4.18;;;17.20;92.80;;;;;;5072254;28;20562;-64
2022/08/23 00:05:17;;;;;;;5.18;4.47;;;17.20;92.80;;;;;;5070487;28;20202;-65
2022/08/23 00:07:45;;;;;;;4.63;4.20;;;17.20;92.80;;;;;;5069975;28;20191;-65
2022/08/23 00:10:16;;;;;;;6.25;4.10;;;17.10;92.80;;;;;;5068170;28;20191;-64
2022/08/23 00:12:46;;;;;;;6.03;4.32;;;17.10;92.90;;;;;;5068212;28;20222;-65
2022/08/23 00:15:19;;;;;;;4.60;4.20;;;17.00;93.00;;;;;;5072180;28;20198;-65
2022/08/23 00:17:47;;;;;;;6.30;4.22;;;17.00;92.90;;;;;;5070920;28;20205;-65
2022/08/23 00:20:19;;;;;;;6.15;4.45;;;16.90;93.20;;;;;;5051082;28;20243;-64
2022/08/23 00:22:47;;;;;;;6.10;4.80;;;16.90;93.30;;;;;;5051420;28;20212;-65
2022/08/23 00:25:17;;;;;;;6.15;4.88;;;16.80;93.30;;;;;;5051997;28;20674;-65
2022/08/23 00:27:46;;;;;;;5.53;4.75;;;16.80;93.30;;;;;;5065950;28;20203;-65
2022/08/23 00:30:17;;;;;;;7.25;4.72;;;16.80;93.40;;;;;;5071878;28;20195;-65
2022/08/23 00:32:46;;;;;;;5.47;4.68;;;16.70;93.50;;;;;;5071932;28;20584;-64
2022/08/23 00:35:16;;;;;;;8.80;5.03;;;16.70;93.80;;;;;;5070842;28;20194;-63
2022/08/23 00:37:56;;;;;;;6.43;4.55;;;16.70;93.90;;;;;;5071584;28;20214;-65
2022/08/23 00:40:46;;;;;;;6.32;4.78;;;16.70;94.30;;;;;;5070017;28;20219;-64
2022/08/23 00:49:17;;;;;;;4.85;4.45;;;16.60;94.10;;;;;;5070623;28;20255;-65
2022/08/23 00:51:51;;;;;;;5.78;4.78;;;16.50;94.20;;;;;;5065675;28;20214;-65
2022/08/23 00:54:23;;;;;;;6.43;4.93;;;16.50;94.20;;;;;;5070502;28;20218;-65
2022/08/23 00:56:53;;;;;;;5.70;4.70;;;16.50;94.40;;;;;;5070350;28;20203;-64
2022/08/23 00:59:23;;;;;;;6.68;4.57;;;16.40;94.50;;;;;;5070540;28;20670;-64
2022/08/23 01:01:53;;;;;;;5.72;4.50;;;16.30;94.60;;;;;;5071243;28;20214;-62
2022/08/23 01:04:22;;;;;;;7.70;4.88;;;16.30;94.70;;;;;;5055580;28;20192;-65
2022/08/23 01:06:57;;;;;;;6.90;5.40;;;16.20;94.80;;;;;;5065467;28;20203;-64
2022/08/23 01:09:26;;;;;;;7.03;5.50;;;16.30;94.90;;;;;;5073023;28;20195;-63
2022/08/23 01:12:01;;;;;;;43.08;23.65;;;16.30;94.90;;;;;;5072872;28;20575;-64
2022/08/23 01:14:34;;;;;;;106.25;49.90;;;16.30;94.90;;;;;;5067298;28;20222;-63
2022/08/23 01:17:10;;;;;;;339.75;164.02;;;16.20;94.90;;;;;;5074497;28;20199;-64
2022/08/23 01:19:41;;;;;;;145.27;70.25;;;16.20;95.10;;;;;;5073887;28;20179;-64
2022/08/23 01:22:19;;;;;;;54.38;32.00;;;16.10;95.20;;;;;;5062551;28;20717;-64
2022/08/23 01:24:50;;;;;;;33.92;23.42;;;16.20;95.40;;;;;;5057170;28;20654;-64
2022/08/23 01:27:40;;;;;;;22.15;17.77;;;16.10;95.40;;;;;;5070793;28;20203;-64
2022/08/23 01:30:18;;;;;;;20.33;14.32;;;16.10;95.50;;;;;;5072963;28;20234;-64
2022/08/23 01:32:50;;;;;;;12.50;11.20;;;16.00;95.50;;;;;;5072744;28;20203;-63
2022/08/23 01:35:23;;;;;;;11.00;7.78;;;16.10;95.70;;;;;;5073632;28;20194;-63
2022/08/23 01:37:56;;;;;;;7.60;6.65;;;16.00;95.70;;;;;;5073599;28;20190;-64
2022/08/23 01:40:27;;;;;;;9.65;7.03;;;16.00;95.90;;;;;;5073460;28;20215;-64
2022/08/23 01:42:56;;;;;;;8.65;6.80;;;16.00;95.90;;;;;;5072015;28;20207;-64
2022/08/23 01:45:26;;;;;;;7.03;6.05;;;16.00;96.10;;;;;;5073066;28;20207;-64
2022/08/23 01:47:56;;;;;;;7.55;5.13;;;15.90;96.10;;;;;;5074210;28;20218;-65
2022/08/23 01:50:28;;;;;;;5.75;5.15;;;15.90;96.10;;;;;;5071790;28;20215;-63
2022/08/23 01:52:57;;;;;;;6.70;5.45;;;15.90;96.20;;;;;;5072303;28;20207;-64
2022/08/23 01:55:29;;;;;;;6.22;5.32;;;15.90;96.20;;;;;;5072857;28;20704;-64
2022/08/23 01:58:00;;;;;;;5.93;5.20;;;15.70;96.20;;;;;;5066353;28;20634;-64
2022/08/23 02:00:32;;;;;;;9.90;5.60;;;15.60;96.30;;;;;;5052158;28;20235;-64
2022/08/23 02:03:02;;;;;;;8.30;5.35;;;15.60;96.60;;;;;;5058223;28;20214;-63
2022/08/23 02:05:33;;;;;;;6.13;5.25;;;15.60;96.80;;;;;;5072312;28;20211;-64
2022/08/23 02:08:59;;;;;;;7.22;5.68;;;15.50;96.80;;;;;;5074099;28;20207;-65
2022/08/23 02:10:55;;;;;;;8.10;5.18;;;15.50;96.80;;;;;;5071937;28;20226;-66
2022/08/23 02:13:26;;;;;;;7.20;5.05;;;15.50;97.20;;;;;;5052148;28;20231;-65
2022/08/23 02:15:57;;;;;;;8.38;5.53;;;15.40;97.30;;;;;;5051844;28;20226;-64
2022/08/23 02:18:26;;;;;;;5.93;5.22;;;15.50;97.40;;;;;;5052657;28;20574;-63
2022/08/23 02:20:55;;;;;;;6.65;5.38;;;15.40;97.40;;;;;;5057886;28;20231;-65
2022/08/23 02:23:24;;;;;;;8.38;4.43;;;15.50;97.50;;;;;;5052210;28;20676;-66
2022/08/23 02:25:53;;;;;;;5.88;5.28;;;15.50;97.60;;;;;;5067813;28;20207;-64
2022/08/23 02:28:24;;;;;;;7.45;4.82;;;15.50;97.90;;;;;;5073469;28;20211;-63
2022/08/23 02:30:53;;;;;;;5.20;4.70;;;15.40;97.60;;;;;;5069076;28;20231;-65
2022/08/23 02:33:23;;;;;;;6.88;5.00;;;15.40;97.70;;;;;;5053501;28;20210;-63
2022/08/23 02:35:52;;;;;;;6.50;4.97;;;15.40;97.80;;;;;;5054007;28;20211;-64
2022/08/23 02:38:21;;;;;;;7.60;4.97;;;15.40;98.10;;;;;;5066731;28;20199;-63
2022/08/23 02:40:51;;;;;;;6.22;4.82;;;15.40;97.90;;;;;;5071520;28;20238;-63
2022/08/23 02:43:32;;;;;;;4.75;4.35;;;15.30;97.90;;;;;;5071520;28;20206;-64
2022/08/23 02:46:05;;;;;;;5.85;5.30;;;15.30;98.00;;;;;;5071517;28;20565;-64
2022/08/23 02:48:34;;;;;;;5.53;4.88;;;15.30;98.10;;;;;;5071169;28;20203;-63
2022/08/23 02:51:07;;;;;;;6.28;5.03;;;15.20;98.10;;;;;;5071121;28;20594;-63
2022/08/23 02:53:37;;;;;;;5.20;4.70;;;15.20;98.20;;;;;;5070553;28;20206;-67
2022/08/23 02:56:09;;;;;;;5.47;4.95;;;15.20;98.30;;;;;;5052101;28;20207;-63
2022/08/23 02:58:51;;;;;;;7.78;5.88;;;15.20;98.40;;;;;;5051627;28;20223;-64
2022/08/23 03:01:27;;;;;;;8.15;5.43;;;15.20;98.40;;;;;;5054909;28;20227;-64
2022/08/23 03:04:00;;;;;;;5.93;4.63;;;15.10;98.50;;;;;;5051252;28;20659;-63
2022/08/23 03:06:31;;;;;;;7.63;4.60;;;15.10;98.60;;;;;;5051770;28;20200;-63
2022/08/23 03:09:00;;;;;;;5.30;4.75;;;15.10;98.60;;;;;;5063314;28;20202;-63
2022/08/23 03:11:29;;;;;;;5.97;4.82;;;15.10;99.00;;;;;;5068468;28;20211;-63
2022/08/23 03:14:00;;;;;;;5.40;4.90;;;15.10;98.80;;;;;;5062905;28;20199;-64
2022/08/23 03:16:29;;;;;;;7.30;4.60;;;15.00;98.80;;;;;;5068207;28;20700;-63
2022/08/23 03:19:00;;;;;;;7.57;5.70;;;14.90;98.90;;;;;;5072140;28;20203;-62
2022/08/23 03:21:30;;;;;;;6.13;5.05;;;14.90;98.90;;;;;;5071567;28;20573;-63
2022/08/23 03:24:00;;;;;;;7.03;5.10;;;14.90;98.90;;;;;;5066913;28;20230;-63
2022/08/23 03:26:34;;;;;;;13.85;5.43;;;14.90;98.90;;;;;;5067069;28;20221;-63
2022/08/23 03:29:04;;;;;;;8.30;6.72;;;14.80;99.10;;;;;;5071087;28;20214;-64
2022/08/23 03:31:44;;;;;;;9.00;6.43;;;14.70;99.20;;;;;;5068840;28;20688;-63
2022/08/23 03:34:13;;;;;;;9.25;6.57;;;14.50;99.50;;;;;;5072604;28;20194;-64
2022/08/23 03:36:42;;;;;;;8.82;6.78;;;14.50;99.70;;;;;;5070731;28;20555;-64
2022/08/23 03:39:11;;;;;;;6.65;4.95;;;14.50;99.90;;;;;;5071460;28;20553;-64
2022/08/23 03:41:40;;;;;;;6.47;5.15;;;14.50;99.90;;;;;;5065641;28;20229;-63
2022/08/23 03:44:10;;;;;;;5.45;4.95;;;14.40;99.90;;;;;;5069573;28;20217;-65
2022/08/23 03:46:42;;;;;;;5.47;4.97;;;14.40;99.90;;;;;;5067466;28;20195;-62
2022/08/23 03:49:11;;;;;;;5.38;4.65;;;14.50;99.90;;;;;;5070624;28;20226;-63
2022/08/23 03:51:52;;;;;;;5.00;4.60;;;14.50;99.90;;;;;;5071208;28;20211;-63
2022/08/23 03:54:21;;;;;;;8.93;4.70;;;14.40;99.90;;;;;;5067351;28;20204;-64
2022/08/23 03:56:55;;;;;;;8.52;4.80;;;14.40;99.90;;;;;;5071251;28;20198;-63
2022/08/23 03:59:27;;;;;;;6.95;5.13;;;14.40;99.90;;;;;;5071151;28;20558;-63
2022/08/23 04:01:56;;;;;;;6.20;4.70;;;14.40;99.90;;;;;;5066275;28;20214;-62
2022/08/23 04:04:24;;;;;;;7.38;5.10;;;14.30;99.90;;;;;;5068763;28;20209;-64
2022/08/23 04:07:17;;;;;;;5.78;4.85;;;14.30;99.90;;;;;;5066206;28;20191;-63
2022/08/23 04:09:46;;;;;;;4.53;4.13;;;14.30;99.90;;;;;;5066511;28;20191;-64
2022/08/23 04:12:23;;;;;;;5.90;5.10;;;14.20;99.90;;;;;;5066430;28;20205;-63
2022/08/23 04:14:53;;;;;;;6.03;5.38;;;14.20;99.90;;;;;;5071064;28;20215;-63
2022/08/23 04:17:23;;;;;;;5.78;4.82;;;14.20;99.90;;;;;;5051698;28;20212;-64
2022/08/23 04:19:53;;;;;;;5.53;4.75;;;14.10;99.90;;;;;;5052114;28;20192;-63
2022/08/23 04:22:23;;;;;;;8.65;4.78;;;14.10;99.90;;;;;;5071801;28;20587;-62
2022/08/23 04:24:52;;;;;;;5.32;4.53;;;14.00;99.90;;;;;;5071026;28;20218;-64
2022/08/23 04:27:22;;;;;;;6.88;4.90;;;14.00;99.90;;;;;;5070964;28;20194;-62
2022/08/23 04:29:50;;;;;;;6.72;5.18;;;14.00;99.90;;;;;;5069968;28;20187;-62
2022/08/23 04:32:21;;;;;;;7.78;4.95;;;13.90;99.90;;;;;;5077614;28;20707;-64
2022/08/23 04:34:57;;;;;;;7.25;5.65;;;13.90;99.90;;;;;;5072103;28;20542;-63
2022/08/23 04:37:26;;;;;;;8.18;5.47;;;13.80;99.90;;;;;;5072348;28;20208;-64
2022/08/23 04:42:43;;;;;;;5.63;4.85;;;13.80;99.90;;;;;;5074735;28;20195;-62
2022/08/23 04:45:13;;;;;;;5.93;4.70;;;13.80;99.90;;;;;;5070821;28;20217;-63
2022/08/23 04:47:47;;;;;;;6.20;5.60;;;13.80;99.90;;;;;;5074746;28;20191;-63
2022/08/23 04:50:16;;;;;;;8.43;5.95;;;13.80;99.90;;;;;;5075631;28;20219;-63
2022/08/23 04:53:03;;;;;;;7.25;5.40;;;13.80;99.90;;;;;;5075703;28;20579;-64
2022/08/23 04:55:37;;;;;;;8.55;5.50;;;13.80;99.90;;;;;;5073778;28;20218;-63
2022/08/23 04:58:07;;;;;;;8.35;5.15;;;13.80;99.90;;;;;;5067213;28;20222;-63
2022/08/23 05:00:44;;;;;;;9.93;6.20;;;13.80;99.90;;;;;;5072900;28;20219;-64
2022/08/23 05:03:23;;;;;;;6.57;5.05;;;13.70;99.90;;;;;;5072945;28;20214;-63
2022/08/23 05:05:52;;;;;;;6.65;4.50;;;13.70;99.90;;;;;;5074376;28;20188;-63
2022/08/23 05:08:25;;;;;;;6.00;4.88;;;13.80;99.90;;;;;;5072114;28;20351;-64
2022/08/23 05:10:54;;;;;;;5.93;4.90;;;13.70;99.90;;;;;;5071488;28;20215;-63
2022/08/23 05:13:23;;;;;;;6.18;5.25;;;13.80;99.90;;;;;;5073024;28;20222;-63
2022/08/23 05:15:52;;;;;;;5.50;5.00;;;13.80;99.90;;;;;;5061748;28;20226;-63
2022/08/23 05:18:26;;;;;;;6.85;5.57;;;13.80;99.90;;;;;;5055094;28;20192;-62
2022/08/23 05:20:55;;;;;;;8.45;5.85;;;13.90;99.90;;;;;;5071189;28;20234;-64
2022/08/23 05:23:24;;;;;;;7.32;5.10;;;13.90;99.90;;;;;;5068974;28;20207;-62
2022/08/23 05:26:05;;;;;;;6.53;5.43;;;13.90;99.90;;;;;;5070549;28;21911;-65
2022/08/23 05:28:43;;;;;;;6.20;5.60;;;13.90;99.90;;;;;;5073414;28;20194;-64
2022/08/23 05:31:16;;;;;;;9.02;7.60;;;14.00;99.90;;;;;;5056596;28;20218;-62
2022/08/23 05:33:54;;;;;;;6.63;5.90;;;14.00;99.90;;;;;;5072490;28;20198;-64
2022/08/23 05:36:52;;;;;;;9.35;7.47;;;13.90;99.90;;;;;;5053409;28;20230;-63
2022/08/23 05:39:39;;;;;;;10.02;6.85;;;14.00;99.90;;;;;;5071715;28;20183;-64
2022/08/23 05:42:13;;;;;;;8.27;6.72;;;14.00;99.90;;;;;;5073429;28;20215;-62
2022/08/23 05:44:44;;;;;;;22.30;13.40;;;14.00;99.90;;;;;;5069846;28;20187;-64
2022/08/23 05:47:15;;;;;;;31.58;16.92;;;14.00;99.90;;;;;;5073172;28;20649;-63
2022/08/23 05:49:59;;;;;;;40.85;24.30;;;14.10;99.90;;;;;;5072672;28;20564;-64
2022/08/23 05:52:31;;;;;;;31.05;20.67;;;14.10;99.90;;;;;;5066864;28;20196;-62
2022/08/23 05:55:01;;;;;;;21.63;14.27;;;14.10;99.90;;;;;;5064490;28;20211;-63
2022/08/23 05:57:39;;;;;;;25.38;16.13;;;14.20;99.90;;;;;;5074395;28;20215;-63
2022/08/23 06:00:12;;;;;;;23.10;15.88;;;14.20;99.90;;;;;;5066401;28;20262;-63
2022/08/23 06:02:47;;;;;;;14.80;11.02;;;14.30;99.90;;;;;;5065085;28;20206;-63
2022/08/23 06:05:19;;;;;;;12.68;8.98;;;14.30;99.90;;;;;;5066831;28;20187;-63
2022/08/23 06:07:49;;;;;;;11.98;9.10;;;14.40;99.90;;;;;;5073145;28;20180;-64
2022/08/23 06:10:20;;;;;;;11.48;9.25;;;14.60;99.90;;;;;;5069009;28;20222;-64
2022/08/23 06:12:55;;;;;;;12.93;9.85;;;14.60;99.90;;;;;;5068005;28;20191;-62
2022/08/23 06:15:24;;;;;;;10.90;8.77;;;14.60;99.90;;;;;;5056175;28;20192;-63
2022/08/23 06:17:53;;;;;;;10.48;9.05;;;14.70;99.90;;;;;;5067956;28;20238;-64
2022/08/23 06:20:23;;;;;;;15.80;9.70;;;14.80;99.90;;;;;;5052814;28;20215;-62
2022/08/23 06:23:06;;;;;;;11.18;9.40;;;14.90;99.90;;;;;;5054651;28;20188;-62
2022/08/23 06:25:36;;;;;;;15.75;9.70;;;14.90;99.90;;;;;;5068496;28;20215;-64
2022/08/23 06:28:12;;;;;;;11.52;8.93;;;15.00;99.90;;;;;;5070488;28;20206;-63
2022/08/23 06:30:43;;;;;;;11.85;9.20;;;15.00;99.90;;;;;;5070004;28;20681;-62
2022/08/23 06:33:29;;;;;;;10.75;9.65;;;15.10;99.90;;;;;;5072622;28;20680;-63
2022/08/23 06:36:19;;;;;;;11.18;9.63;;;15.10;99.90;;;;;;5073519;28;20199;-63
2022/08/23 06:38:59;;;;;;;11.57;10.07;;;15.30;99.90;;;;;;5072574;28;20518;-63
2022/08/23 06:41:59;;;;;;;10.52;9.45;;;15.40;99.90;;;;;;5050270;28;20236;-63
2022/08/23 06:44:31;;;;;;;12.85;10.20;;;15.50;99.90;;;;;;5052477;28;20186;-63
2022/08/23 06:47:12;;;;;;;11.45;9.90;;;15.60;99.90;;;;;;5066997;28;20195;-64
2022/08/23 06:49:41;;;;;;;11.15;10.10;;;15.80;99.90;;;;;;5072270;28;20199;-63
2022/08/23 06:52:48;;;;;;;10.38;9.25;;;15.90;99.90;;;;;;5073324;28;20198;-64
2022/08/23 06:55:30;;;;;;;12.35;9.52;;;16.10;99.90;;;;;;5068645;28;20668;-64
2022/08/23 06:58:22;;;;;;;11.75;10.00;;;16.20;99.90;;;;;;5067118;28;20230;-63
2022/08/23 07:01:11;;;;;;;13.05;10.13;;;16.30;99.90;;;;;;5058404;28;20732;-63
2022/08/23 07:04:13;;;;;;;12.90;9.75;;;16.40;99.90;;;;;;5063702;28;20203;-64
2022/08/23 07:07:06;;;;;;;11.40;10.20;;;16.60;99.90;;;;;;5070290;28;20207;-63
2022/08/23 07:09:41;;;;;;;12.02;10.57;;;16.70;99.90;;;;;;5052978;28;20183;-63
2022/08/23 07:12:11;;;;;;;12.85;9.00;;;16.80;99.90;;;;;;5051840;28;20226;-64
2022/08/23 07:14:44;;;;;;;12.43;9.85;;;16.90;99.90;;;;;;5065202;28;20206;-63
2022/08/23 07:17:14;;;;;;;11.50;9.63;;;17.10;99.90;;;;;;5066214;28;20223;-65
2022/08/23 07:19:43;;;;;;;12.05;9.93;;;17.30;99.90;;;;;;5071657;28;20199;-65
2022/08/23 07:22:12;;;;;;;13.43;10.25;;;17.30;99.90;;;;;;5071656;28;20207;-63
2022/08/23 07:24:44;;;;;;;9.95;8.95;;;17.40;99.90;;;;;;5071687;28;20257;-64
2022/08/23 07:27:14;;;;;;;12.10;8.90;;;17.50;99.90;;;;;;5064998;28;20226;-64
2022/08/23 07:29:59;;;;;;;9.05;8.15;;;17.70;99.90;;;;;;5069407;28;20195;-63
2022/08/23 07:32:28;;;;;;;11.05;8.57;;;18.00;99.90;;;;;;5067386;28;20222;-63
2022/08/23 07:34:58;;;;;;;10.82;8.70;;;18.20;99.90;;;;;;5071455;28;20196;-63
2022/08/23 07:37:30;;;;;;;11.75;8.57;;;18.20;99.90;;;;;;5071408;28;20234;-63
2022/08/23 07:40:01;;;;;;;8.75;7.85;;;18.20;99.90;;;;;;5070130;28;20205;-63
2022/08/23 07:42:33;;;;;;;8.85;8.00;;;18.30;99.90;;;;;;5071697;28;20191;-63
2022/08/23 07:45:02;;;;;;;11.65;8.50;;;18.60;99.90;;;;;;5070195;28;20688;-65
2022/08/23 07:47:34;;;;;;;11.02;8.23;;;19.00;99.90;;;;;;5067372;28;20588;-63
2022/08/23 07:50:03;;;;;;;11.85;7.80;;;19.00;99.90;;;;;;5065751;28;20200;-63
2022/08/23 07:52:34;;;;;;;10.32;8.02;;;19.10;99.90;;;;;;5071386;28;20176;-64
2022/08/23 07:55:05;;;;;;;8.07;7.25;;;19.10;99.90;;;;;;5072459;28;20206;-64
2022/08/23 07:58:02;;;;;;;10.32;8.23;;;19.40;99.90;;;;;;5063182;28;20237;-64
2022/08/23 08:00:52;;;;;;;10.88;8.27;;;19.50;99.90;;;;;;5064668;28;20234;-63
2022/08/23 08:03:40;;;;;;;10.38;7.70;;;19.80;99.90;;;;;;5051142;28;20195;-63
2022/08/23 08:06:20;;;;;;;12.90;7.95;;;20.10;99.50;;;;;;5051194;28;20191;-64
2022/08/23 08:08:50;;;;;;;14.82;7.72;;;20.20;99.40;;;;;;5051209;28;20188;-65
2022/08/23 08:11:24;;;;;;;9.48;7.70;;;20.30;99.90;;;;;;5050986;28;20223;-64
2022/08/23 08:13:57;;;;;;;11.32;7.90;;;20.50;99.30;;;;;;5068853;28;20207;-64
2022/08/23 08:16:30;;;;;;;9.55;6.78;;;20.80;98.00;;;;;;5067609;28;20592;-65
2022/08/23 08:19:00;;;;;;;8.52;7.25;;;21.00;98.10;;;;;;5055100;28;20226;-63
2022/08/23 08:21:52;;;;;;;10.18;7.53;;;21.00;97.50;;;;;;5056233;28;20218;-64
2022/08/23 08:24:46;;;;;;;9.60;7.22;;;21.20;96.80;;;;;;5040433;28;20204;-65
2022/08/23 08:27:17;;;;;;;8.35;6.95;;;21.10;96.60;;;;;;5057857;28;20191;-64
2022/08/23 08:29:45;;;;;;;9.90;6.28;;;21.20;97.20;;;;;;5068051;28;20209;-64
2022/08/23 08:32:14;;;;;;;7.85;5.50;;;21.10;97.10;;;;;;5060051;28;20242;-65
2022/08/23 08:34:44;;;;;;;8.52;4.68;;;21.10;96.40;;;;;;5074861;28;20206;-63
2022/08/23 08:37:13;;;;;;;6.25;5.07;;;21.50;94.20;;;;;;5074928;28;20195;-64
2022/08/23 08:39:44;;;;;;;6.57;5.30;;;21.90;94.10;;;;;;5072440;28;20226;-64
2022/08/23 08:42:36;;;;;;;6.97;5.50;;;22.10;92.60;;;;;;5061310;28;20234;-64
2022/08/23 08:45:10;;;;;;;8.43;4.68;;;22.60;91.70;;;;;;5062865;28;20690;-64
2022/08/23 08:47:48;;;;;;;6.85;4.13;;;22.50;92.30;;;;;;5073319;28;20206;-65
2022/08/23 08:50:22;;;;;;;6.05;4.20;;;22.50;93.00;;;;;;5074528;28;20219;-65
2022/08/23 08:53:01;;;;;;;5.10;3.92;;;22.50;92.80;;;;;;5069191;28;20668;-63
2022/08/23 08:55:53;;;;;;;8.63;4.32;;;22.40;92.40;;;;;;5075491;28;20209;-63
2022/08/23 08:58:27;;;;;;;8.32;4.22;;;22.50;91.30;;;;;;5074386;28;20574;-65
2022/08/23 09:00:57;;;;;;;5.32;4.15;;;22.80;89.90;;;;;;5073191;28;20233;-65
2022/08/23 09:03:32;;;;;;;7.53;3.58;;;22.90;91.40;;;;;;5072971;28;20199;-64
2022/08/23 09:06:07;;;;;;;4.55;3.38;;;22.80;92.40;;;;;;5069553;28;20202;-65
2022/08/23 09:08:52;;;;;;;4.93;3.47;;;23.10;90.50;;;;;;5074240;28;20194;-64
2022/08/23 09:11:33;;;;;;;6.10;3.78;;;23.40;89.50;;;;;;5074076;28;20214;-65
2022/08/23 09:14:26;;;;;;;5.95;4.10;;;23.70;88.20;;;;;;5074181;28;20519;-65
2022/08/23 09:17:03;;;;;;;7.38;3.78;;;24.10;84.80;;;;;;5056641;28;20637;-64
2022/08/23 09:19:38;;;;;;;5.75;3.92;;;24.40;83.20;;;;;;5055103;28;20218;-65
2022/08/23 09:22:12;;;;;;;4.70;3.40;;;24.40;83.70;;;;;;5053971;28;20215;-62
2022/08/23 09:24:41;;;;;;;6.22;3.30;;;24.30;86.20;;;;;;5053553;28;20196;-65
2022/08/23 09:27:17;;;;;;;6.90;3.60;;;24.20;84.00;;;;;;5060272;28;20199;-63
2022/08/23 09:29:56;;;;;;;5.32;3.28;;;24.10;84.80;;;;;;5069632;28;20768;-64
2022/08/23 09:32:29;;;;;;;4.75;2.28;;;24.00;85.00;;;;;;5059661;28;20672;-64
2022/08/23 09:35:16;;;;;;;6.38;2.35;;;24.20;79.40;;;;;;5072075;28;20192;-65
2022/08/23 09:37:58;;;;;;;5.43;2.60;;;24.10;83.80;;;;;;5073883;28;20195;-64
2022/08/23 09:40:37;;;;;;;6.45;2.47;;;24.20;84.30;;;;;;5069207;28;20586;-62
2022/08/23 09:43:13;;;;;;;2.40;1.98;;;24.10;84.50;;;;;;5073619;28;20687;-64
2022/08/23 09:45:57;;;;;;;3.50;2.63;;;24.10;84.00;;;;;;5068576;28;20199;-64
2022/08/23 09:48:39;;;;;;;4.13;2.42;;;24.10;84.00;;;;;;5072455;28;20199;-64
2022/08/23 09:51:22;;;;;;;3.92;2.80;;;24.30;84.60;;;;;;5072615;28;20230;-64
2022/08/23 09:54:04;;;;;;;4.78;2.63;;;24.50;83.70;;;;;;5073481;28;20180;-64
2022/08/23 09:56:38;;;;;;;4.40;2.03;;;24.80;81.10;;;;;;5073439;28;20183;-64
2022/08/23 09:59:34;;;;;;;5.25;2.00;;;24.90;80.70;;;;;;5065585;28;20210;-63
2022/08/23 10:02:23;;;;;;;5.00;2.20;;;25.00;79.50;;;;;;5069385;28;20222;-65
2022/08/23 10:04:58;;;;;;;3.50;2.10;;;24.90;79.70;;;;;;5070332;28;20664;-65
2022/08/23 10:07:34;;;;;;;2.97;1.70;;;25.10;76.40;;;;;;5070296;28;20203;-65
2022/08/23 10:10:16;;;;;;;4.35;2.05;;;25.10;76.60;;;;;;5072750;28;20210;-65
2022/08/23 10:12:46;;;;;;;4.10;2.10;;;25.20;74.70;;;;;;5073109;28;20657;-65
2022/08/23 10:15:16;;;;;;;3.78;2.40;;;25.30;77.30;;;;;;5070810;28;20254;-65
2022/08/23 10:17:54;;;;;;;6.03;2.38;;;25.30;79.20;;;;;;5071748;28;20203;-66
2022/08/23 10:20:35;;;;;;;3.03;2.00;;;25.50;77.60;;;;;;5069950;28;20246;-65
2022/08/23 10:23:14;;;;;;;3.97;2.25;;;25.60;77.90;;;;;;5072912;28;20182;-65
2022/08/23 10:25:57;;;;;;;3.47;2.00;;;25.70;71.40;;;;;;5065915;28;20200;-66
2022/08/23 10:31:34;;;;;;;2.92;1.70;;;26.00;74.80;;;;;;5056429;28;20211;-65
2022/08/23 10:34:21;;;;;;;3.10;2.40;;;26.00;74.00;;;;;;5053535;28;20685;-65
2022/08/23 10:37:04;;;;;;;3.47;1.90;;;26.30;74.40;;;;;;5052505;28;20192;-64
2022/08/23 10:39:32;;;;;;;5.03;1.95;;;26.20;73.80;;;;;;5053648;28;20576;-64
2022/08/23 10:42:08;;;;;;;4.05;1.80;;;26.30;72.30;;;;;;5067773;28;20215;-65
2022/08/23 10:44:46;;;;;;;3.33;1.80;;;26.40;71.60;;;;;;5071688;28;20213;-65
2022/08/23 10:47:29;;;;;;;3.65;1.80;;;26.40;72.10;;;;;;5066364;28;20188;-66
2022/08/23 10:50:04;;;;;;;3.17;1.80;;;26.40;70.70;;;;;;5067666;28;20557;-65
2022/08/23 10:52:39;;;;;;;3.97;1.95;;;26.80;68.10;;;;;;5072240;28;20190;-66
2022/08/23 10:55:33;;;;;;;3.08;1.90;;;26.90;70.10;;;;;;5069918;28;20198;-65
2022/08/23 10:58:06;;;;;;;2.92;1.90;;;26.90;70.50;;;;;;5072199;28;20188;-65
2022/08/23 11:00:37;;;;;;;2.28;1.90;;;27.00;71.50;;;;;;5072107;28;20227;-65
2022/08/23 11:03:17;;;;;;;3.40;1.70;;;26.90;71.60;;;;;;5065462;28;20198;-66
2022/08/23 11:06:24;;;;;;;5.32;1.92;;;26.90;72.40;;;;;;5072111;28;20194;-65
2022/08/23 11:09:02;;;;;;;3.22;1.90;;;26.80;70.90;;;;;;5064864;28;20203;-66
2022/08/23 11:11:39;;;;;;;2.30;1.77;;;26.70;72.60;;;;;;5071884;28;20230;-65
2022/08/23 11:14:10;;;;;;;3.25;1.95;;;26.60;73.00;;;;;;5072015;28;20190;-68
2022/08/23 11:16:45;;;;;;;2.67;1.67;;;26.70;69.30;;;;;;5065891;28;20211;-65
2022/08/23 11:19:41;;;;;;;2.22;1.77;;;27.00;68.10;;;;;;5053056;28;20194;-65
2022/08/23 11:22:18;;;;;;;2.88;1.50;;;27.20;65.60;;;;;;5052765;28;20468;-65
2022/08/23 11:24:55;;;;;;;2.03;1.77;;;27.30;67.10;;;;;;5064553;28;20210;-65
2022/08/23 11:27:33;;;;;;;3.17;1.65;;;27.20;67.60;;;;;;5070646;28;20205;-65
2022/08/23 11:30:35;;;;;;;1.60;1.45;;;27.40;65.30;;;;;;5071588;28;20187;-65
2022/08/23 11:33:16;;;;;;;4.55;1.58;;;27.40;65.50;;;;;;5061815;28;20715;-65
2022/08/23 11:35:49;;;;;;;3.50;1.70;;;27.30;67.20;;;;;;5071453;28;20187;-65
2022/08/23 11:39:09;;;;;;;2.92;1.55;;;27.50;67.90;;;;;;5071605;28;20194;-66
2022/08/23 11:42:02;;;;;;;4.45;1.40;;;27.40;68.60;;;;;;5069597;28;20701;-65
2022/08/23 11:44:39;;;;;;;2.53;1.67;;;27.50;63.20;;;;;;5071482;28;20188;-65
2022/08/23 11:47:11;;;;;;;2.92;1.45;;;27.60;66.30;;;;;;5085899;28;20669;-65
2022/08/23 11:50:22;;;;;;;3.22;1.60;;;27.70;62.00;;;;;;5067127;28;20187;-66
2022/08/23 11:53:18;;;;;;;2.97;1.63;;;27.90;63.20;;;;;;5052417;28;20183;-64
2022/08/23 11:56:05;;;;;;;2.50;1.60;;;27.80;65.20;;;;;;5051766;28;20206;-65
2022/08/23 11:58:56;;;;;;;3.85;1.50;;;27.80;65.90;;;;;;5052403;28;20191;-65
2022/08/23 12:01:31;;;;;;;2.15;1.30;;;27.80;65.30;;;;;;5056872;28;20238;-65
2022/08/23 12:04:09;;;;;;;2.70;1.40;;;27.90;61.90;;;;;;5072306;28;20179;-66
2022/08/23 12:06:42;;;;;;;3.58;1.67;;;28.00;60.80;;;;;;5072276;28;20225;-65
2022/08/23 12:09:51;;;;;;;1.83;1.30;;;28.30;56.90;;;;;;5068603;28;20572;-65
2022/08/23 12:12:42;;;;;;;2.10;1.10;;;28.20;63.40;;;;;;5070988;28;20226;-64
2022/08/23 12:15:17;;;;;;;3.92;1.30;;;28.00;64.50;;;;;;5065114;28;20203;-65
2022/08/23 12:18:09;;;;;;;2.40;1.17;;;27.90;64.50;;;;;;5070697;28;20199;-66
2022/08/23 12:20:39;;;;;;;2.15;1.40;;;27.90;65.30;;;;;;5069625;28;20226;-72
2022/08/23 12:23:20;;;;;;;3.10;1.10;;;27.90;65.70;;;;;;5069972;28;20203;-69
2022/08/23 12:26:06;;;;;;;2.65;1.40;;;28.00;61.60;;;;;;5052191;28;20623;-64
2022/08/23 12:28:43;;;;;;;4.13;1.48;;;28.10;61.00;;;;;;5052282;28;20184;-66
2022/08/23 12:31:18;;;;;;;3.42;1.30;;;28.40;57.60;;;;;;5061227;28;20218;-64
2022/08/23 12:34:06;;;;;;;2.38;1.25;;;28.40;58.80;;;;;;5072172;28;20187;-64
2022/08/23 12:36:43;;;;;;;1.98;1.30;;;28.40;61.10;;;;;;5070349;28;20206;-64
2022/08/23 12:39:24;;;;;;;1.83;1.20;;;28.40;59.40;;;;;;5061216;28;20595;-66
2022/08/23 12:41:57;;;;;;;4.05;1.38;;;28.40;62.30;;;;;;5070046;28;20693;-66
2022/08/23 12:44:29;;;;;;;5.28;1.50;;;28.60;58.60;;;;;;5071930;28;20195;-65
2022/08/23 12:47:15;;;;;;;2.05;1.40;;;28.60;58.50;;;;;;5069606;28;20564;-65
2022/08/23 12:49:55;;;;;;;2.47;1.20;;;28.50;61.30;;;;;;5070447;28;20638;-65
2022/08/23 12:52:26;;;;;;;3.63;1.38;;;28.60;57.50;;;;;;5070363;28;20633;-64
2022/08/23 12:54:56;;;;;;;17.10;2.72;;;28.70;57.50;;;;;;5071432;28;20214;-64
2022/08/23 12:57:32;;;;;;;7.18;1.92;;;28.60;64.40;;;;;;5071858;28;20206;-64
2022/08/23 13:00:16;;;;;;;13.07;2.60;;;28.90;58.20;;;;;;5073259;28;20564;-64
2022/08/23 13:02:52;;;;;;;7.63;1.92;;;28.90;60.60;;;;;;5061609;28;20220;-64
2022/08/23 13:05:26;;;;;;;5.15;1.70;;;28.80;61.60;;;;;;5069958;28;20199;-64
2022/08/23 13:07:56;;;;;;;5.18;1.60;;;28.70;62.70;;;;;;5075455;28;20190;-65
2022/08/23 13:10:25;;;;;;;5.75;1.88;;;28.50;64.10;;;;;;5073415;28;20591;-66
2022/08/23 13:12:54;;;;;;;6.90;1.55;;;28.50;61.40;;;;;;5072988;28;20206;-66
2022/08/23 13:15:51;;;;;;;10.73;2.15;;;28.50;64.00;;;;;;5067744;28;20206;-66
2022/08/23 13:18:33;;;;;;;6.13;1.88;;;28.40;64.30;;;;;;5055296;28;20188;-65
2022/08/23 13:21:25;;;;;;;6.28;2.00;;;28.60;60.90;;;;;;5063363;28;20237;-66
2022/08/23 13:23:56;;;;;;;4.95;1.58;;;28.40;63.60;;;;;;5073001;28;20688;-65
2022/08/23 13:26:37;;;;;;;2.67;1.50;;;28.30;59.70;;;;;;5075288;28;20210;-65
2022/08/23 13:29:19;;;;;;;5.13;1.60;;;28.40;58.20;;;;;;5071257;28;20195;-66
2022/08/23 13:31:51;;;;;;;4.28;1.27;;;28.70;60.20;;;;;;5062723;28;20600;-67
2022/08/23 13:34:38;;;;;;;2.25;1.58;;;28.70;57.50;;;;;;5063513;28;20595;-67
2022/08/23 13:37:19;;;;;;;4.93;1.40;;;28.80;58.40;;;;;;5067547;28;20572;-67
2022/08/23 13:39:50;;;;;;;3.15;1.50;;;28.60;59.10;;;;;;5057995;28;20202;-67